Time,TemperatureF,DewpointF,PressureIn,WindDirection,WindDirectionDegrees,WindSpeedMPH,WindSpeedGustMPH,Humidity,HourlyPrecipIn,Conditions,Clouds,dailyrainin,SoftwareType,DateUTC
2013-02-19 00:01:00,19.0,12.0,-100.00,ESE,107,5.0,6.0,73,0.00,,,-99.99,,2013-02-19 07:01:00,
2013-02-19 00:11:00,20.0,12.0,-100.00,ESE,117,4.0,5.0,71,0.00,,,-99.99,,2013-02-19 07:11:00,
2013-02-19 00:21:00,21.0,13.0,-100.00,ESE,112,3.0,6.0,69,0.00,,,-99.99,,2013-02-19 07:21:00,
2013-02-19 00:32:00,21.0,13.0,-100.00,ESE,112,3.0,6.0,69,0.00,,,-99.99,,2013-02-19 07:32:00,
2013-02-19 00:42:00,21.0,12.0,-100.00,East,79,6.0,7.0,69,0.00,,,-99.99,,2013-02-19 07:42:00,
2013-02-19 00:52:00,21.0,12.0,-100.00,ENE,76,5.0,6.0,67,0.00,,,-99.99,,2013-02-19 07:52:00,
2013-02-19 01:01:00,21.0,12.0,-100.00,ENE,76,5.0,6.0,67,0.00,,,-99.99,,2013-02-19 08:01:00,
2013-02-19 01:11:00,19.0,11.0,-100.00,ESE,107,5.0,7.0,71,0.00,,,-99.99,,2013-02-19 08:11:00,
2013-02-19 01:21:00,21.0,12.0,-100.00,East,96,7.0,8.0,67,0.00,,,-99.99,,2013-02-19 08:21:00,
2013-02-19 01:31:00,21.0,12.0,-100.00,East,96,7.0,8.0,67,0.00,,,-99.99,,2013-02-19 08:31:00,
2013-02-19 01:42:00,20.0,11.0,-100.00,East,99,6.0,8.0,68,0.00,,,-99.99,,2013-02-19 08:42:00,
2013-02-19 01:52:00,20.0,10.0,-100.00,ESE,102,5.0,6.0,65,0.00,,,-99.99,,2013-02-19 08:52:00,
2013-02-19 02:01:00,20.0,10.0,-100.00,ESE,102,5.0,6.0,65,0.00,,,-99.99,,2013-02-19 09:01:00,
2013-02-19 02:11:00,19.0,8.0,-100.00,ESE,119,5.0,5.0,60,0.00,,,-99.99,,2013-02-19 09:11:00,
2013-02-19 02:21:00,20.0,10.0,-100.00,East,93,5.0,6.0,62,0.00,,,-99.99,,2013-02-19 09:21:00,
2013-02-19 02:31:00,20.0,10.0,-100.00,East,93,5.0,6.0,62,0.00,,,-99.99,,2013-02-19 09:31:00,
2013-02-19 02:41:00,21.0,10.0,-100.00,East,95,7.0,9.0,61,0.00,,,-99.99,,2013-02-19 09:41:00,
2013-02-19 02:53:00,21.0,10.0,-100.00,East,96,7.0,8.0,61,0.00,,,-99.99,,2013-02-19 09:53:00,
2013-02-19 03:01:00,21.0,10.0,-100.00,East,96,7.0,8.0,61,0.00,,,-99.99,,2013-02-19 10:01:00,
2013-02-19 03:11:00,21.0,11.0,-100.00,East,86,7.0,8.0,63,0.00,,,-99.99,,2013-02-19 10:11:00,
2013-02-19 03:21:00,23.0,9.0,-100.00,East,85,7.0,8.0,54,0.00,,,-99.99,,2013-02-19 10:21:00,
2013-02-19 03:31:00,23.0,9.0,-100.00,East,85,7.0,8.0,54,0.00,,,-99.99,,2013-02-19 10:31:00,
2013-02-19 03:41:00,17.0,11.0,-100.00,ENE,68,7.0,9.0,74,0.00,,,-99.99,,2013-02-19 10:41:00,
2013-02-19 03:52:00,18.0,10.0,-100.00,ENE,73,6.0,8.0,72,0.00,,,-99.99,,2013-02-19 10:52:00,
2013-02-19 04:01:00,18.0,10.0,-100.00,ENE,73,6.0,8.0,72,0.00,,,-99.99,,2013-02-19 11:01:00,
2013-02-19 04:11:00,20.0,5.0,-100.00,ENE,75,3.0,4.0,51,0.00,,,-99.99,,2013-02-19 11:11:00,
2013-02-19 04:21:00,20.0,6.0,-100.00,SE,137,1.0,2.0,55,0.00,,,-99.99,,2013-02-19 11:21:00,
2013-02-19 04:31:00,20.0,6.0,-100.00,SE,137,1.0,2.0,55,0.00,,,-99.99,,2013-02-19 11:31:00,
2013-02-19 04:42:00,23.0,6.0,-100.00,SE,131,1.0,2.0,50,0.00,,,-99.99,,2013-02-19 11:42:00,
2013-02-19 04:52:00,21.0,5.0,-100.00,NE,55,2.0,3.0,49,0.00,,,-99.99,,2013-02-19 11:52:00,
2013-02-19 05:01:00,21.0,5.0,-100.00,NE,55,2.0,3.0,49,0.00,,,-99.99,,2013-02-19 12:01:00,
2013-02-19 05:12:00,24.0,2.0,-100.00,ESE,120,1.0,2.0,38,0.00,,,-99.99,,2013-02-19 12:12:00,
2013-02-19 05:21:00,26.0,-3.0,-100.00,SE,141,0.0,0.0,28,0.00,,,-99.99,,2013-02-19 12:21:00,
2013-02-19 05:32:00,26.0,-3.0,-100.00,SE,141,0.0,0.0,28,0.00,,,-99.99,,2013-02-19 12:32:00,
2013-02-19 05:42:00,27.0,-3.0,-100.00,SSE,158,1.0,1.0,27,0.00,,,-99.99,,2013-02-19 12:42:00,
2013-02-19 05:52:00,26.0,2.0,-100.00,SE,126,1.0,3.0,34,0.00,,,-99.99,,2013-02-19 12:52:00,
2013-02-19 06:01:00,26.0,2.0,-100.00,SE,126,1.0,3.0,34,0.00,,,-99.99,,2013-02-19 13:01:00,
2013-02-19 06:11:00,25.0,2.0,-100.00,ESE,113,2.0,3.0,36,0.00,,,-99.99,,2013-02-19 13:11:00,
2013-02-19 06:22:00,25.0,0.0,-100.00,SE,140,0.0,3.0,33,0.00,,,-99.99,,2013-02-19 13:22:00,
2013-02-19 06:31:00,25.0,0.0,-100.00,SE,140,0.0,3.0,33,0.00,,,-99.99,,2013-02-19 13:31:00,
2013-02-19 06:41:00,25.0,4.0,-100.00,ESE,117,4.0,4.0,41,0.00,,,-99.99,,2013-02-19 13:41:00,
2013-02-19 06:52:00,27.0,6.0,-100.00,ESE,119,4.0,5.0,40,0.00,,,-99.99,,2013-02-19 13:52:00,
2013-02-19 07:01:00,27.0,6.0,-100.00,ESE,119,4.0,5.0,40,0.00,,,-99.99,,2013-02-19 14:01:00,
2013-02-19 07:11:00,26.0,5.0,-100.00,SE,133,1.0,4.0,40,0.00,,,-99.99,,2013-02-19 14:11:00,
2013-02-19 07:21:00,25.0,4.0,-100.00,SE,137,1.0,4.0,40,0.00,,,-99.99,,2013-02-19 14:21:00,
2013-02-19 07:32:00,25.0,4.0,-100.00,SE,137,1.0,4.0,40,0.00,,,-99.99,,2013-02-19 14:32:00,
2013-02-19 07:41:00,28.0,4.0,-100.00,South,174,2.0,3.0,36,0.00,,,-99.99,,2013-02-19 14:41:00,
2013-02-19 07:52:00,25.0,-1.0,-100.00,South,176,2.0,3.0,32,0.00,,,-99.99,,2013-02-19 14:52:00,
2013-02-19 08:01:00,27.0,-1.0,-100.00,SSE,168,2.0,2.0,29,0.00,,,-99.99,,2013-02-19 15:01:00,
2013-02-19 08:21:00,29.0,-1.0,-100.00,SSE,152,1.0,2.0,26,0.00,,,-99.99,,2013-02-19 15:21:00,
2013-02-19 08:31:00,29.0,-1.0,-100.00,SSE,152,1.0,2.0,26,0.00,,,-99.99,,2013-02-19 15:31:00,
2013-02-19 08:41:00,29.0,-1.0,-100.00,SSE,152,1.0,2.0,26,0.00,,,-99.99,,2013-02-19 15:41:00,
2013-02-19 08:52:00,27.0,0.0,-100.00,SSW,200,2.0,3.0,30,0.00,,,-99.99,,2013-02-19 15:52:00,
2013-02-19 09:01:00,30.0,2.0,-100.00,South,181,0.0,2.0,29,0.00,,,-99.99,,2013-02-19 16:01:00,
2013-02-19 09:21:00,29.0,5.0,-100.00,SSE,165,3.0,4.0,35,0.00,,,-99.99,,2013-02-19 16:21:00,
2013-02-19 09:31:00,29.0,5.0,-100.00,SSE,165,3.0,4.0,35,0.00,,,-99.99,,2013-02-19 16:31:00,
2013-02-19 09:52:00,30.0,2.0,-100.00,SSW,205,2.0,3.0,30,0.00,,,-99.99,,2013-02-19 16:52:00,
2013-02-19 10:01:00,30.0,2.0,-100.00,SSW,205,2.0,3.0,30,0.00,,,-99.99,,2013-02-19 17:01:00,
2013-02-19 10:11:00,30.0,2.0,-100.00,SSW,205,2.0,3.0,30,0.00,,,-99.99,,2013-02-19 17:11:00,
2013-02-19 10:21:00,28.0,5.0,-100.00,SSE,162,2.0,4.0,38,0.00,,,-99.99,,2013-02-19 17:21:00,
2013-02-19 10:31:00,28.0,5.0,-100.00,SSE,162,2.0,4.0,38,0.00,,,-99.99,,2013-02-19 17:31:00,
2013-02-19 10:42:00,28.0,5.0,-100.00,SSE,162,2.0,4.0,38,0.00,,,-99.99,,2013-02-19 17:42:00,
2013-02-19 10:52:00,29.0,3.0,-100.00,SSW,198,1.0,2.0,32,0.00,,,-99.99,,2013-02-19 17:52:00,
2013-02-19 11:01:00,29.0,8.0,-100.00,SSW,193,2.0,2.0,40,0.00,,,-99.99,,2013-02-19 18:01:00,
2013-02-19 11:11:00,29.0,8.0,-100.00,SSW,193,2.0,2.0,40,0.00,,,-99.99,,2013-02-19 18:11:00,
2013-02-19 11:21:00,32.0,4.0,-100.00,ESE,109,0.0,1.0,31,0.00,,,-99.99,,2013-02-19 18:21:00,
2013-02-19 11:31:00,32.0,4.0,-100.00,ESE,109,0.0,1.0,31,0.00,,,-99.99,,2013-02-19 18:31:00,
2013-02-19 11:42:00,32.0,4.0,-100.00,ESE,109,0.0,1.0,31,0.00,,,-99.99,,2013-02-19 18:42:00,
2013-02-19 11:52:00,32.0,8.0,-100.00,West,275,2.0,2.0,36,0.00,,,-99.99,,2013-02-19 18:52:00,
2013-02-19 12:01:00,32.0,8.0,-100.00,WNW,292,0.0,2.0,35,0.00,,,-99.99,,2013-02-19 19:01:00,
2013-02-19 12:11:00,32.0,8.0,-100.00,WNW,292,0.0,2.0,35,0.00,,,-99.99,,2013-02-19 19:11:00,
2013-02-19 12:21:00,30.0,13.0,-100.00,NW,319,2.0,3.0,48,0.00,,,-99.99,,2013-02-19 19:21:00,
2013-02-19 12:31:00,30.0,14.0,-100.00,NW,326,3.0,4.0,52,0.00,,,-99.99,,2013-02-19 19:31:00,
2013-02-19 12:42:00,30.0,14.0,-100.00,NW,326,3.0,4.0,52,0.00,,,-99.99,,2013-02-19 19:42:00,
2013-02-19 12:52:00,30.0,14.0,-100.00,NW,326,3.0,4.0,52,0.00,,,-99.99,,2013-02-19 19:52:00,
2013-02-19 13:01:00,31.0,15.0,-100.00,NNW,328,2.0,2.0,53,0.00,,,-99.99,,2013-02-19 20:01:00,
2013-02-19 13:11:00,31.0,15.0,-100.00,NNW,328,2.0,2.0,53,0.00,,,-99.99,,2013-02-19 20:11:00,
2013-02-19 13:21:00,31.0,15.0,-100.00,North,1,1.0,2.0,50,0.00,,,-99.99,,2013-02-19 20:21:00,
2013-02-19 13:31:00,30.0,18.0,-100.00,North,1,3.0,3.0,60,0.00,,,-99.99,,2013-02-19 20:31:00,
2013-02-19 13:42:00,30.0,18.0,-100.00,North,1,3.0,3.0,60,0.00,,,-99.99,,2013-02-19 20:42:00,
2013-02-19 13:52:00,31.0,17.0,-100.00,North,4,2.0,3.0,57,0.00,,,-99.99,,2013-02-19 20:52:00,
2013-02-19 14:01:00,32.0,18.0,-100.00,West,274,2.0,2.0,54,0.00,,,-99.99,,2013-02-19 21:01:00,
2013-02-19 14:11:00,32.0,18.0,-100.00,West,274,2.0,2.0,54,0.00,,,-99.99,,2013-02-19 21:11:00,
2013-02-19 14:21:00,32.0,18.0,-100.00,West,274,2.0,2.0,54,0.00,,,-99.99,,2013-02-19 21:21:00,
2013-02-19 14:31:00,32.0,22.0,-100.00,SW,222,4.0,6.0,66,0.00,,,-99.99,,2013-02-19 21:31:00,
2013-02-19 14:42:00,32.0,22.0,-100.00,SW,222,4.0,6.0,66,0.00,,,-99.99,,2013-02-19 21:42:00,
2013-02-19 14:52:00,32.0,24.0,-100.00,WSW,237,4.0,6.0,72,0.00,,,-99.99,,2013-02-19 21:52:00,
2013-02-19 15:01:00,32.0,24.0,-100.00,WSW,237,4.0,6.0,72,0.00,,,-99.99,,2013-02-19 22:01:00,
2013-02-19 15:11:00,32.0,24.0,-100.00,WSW,237,4.0,6.0,72,0.00,,,-99.99,,2013-02-19 22:11:00,
2013-02-19 15:21:00,30.0,25.0,-100.00,WNW,288,3.0,4.0,79,0.00,,,-99.99,,2013-02-19 22:21:00,
2013-02-19 15:31:00,30.0,25.0,-100.00,WNW,288,3.0,4.0,79,0.00,,,-99.99,,2013-02-19 22:31:00,
2013-02-19 15:42:00,30.0,25.0,-100.00,WNW,288,3.0,4.0,79,0.00,,,-99.99,,2013-02-19 22:42:00,
2013-02-19 15:52:00,30.0,25.0,-100.00,WNW,288,3.0,4.0,79,0.00,,,-99.99,,2013-02-19 22:52:00,
2013-02-19 16:01:00,30.0,25.0,-100.00,NNW,332,1.0,2.0,80,0.00,,,-99.99,,2013-02-19 23:01:00,
2013-02-19 16:11:00,30.0,25.0,-100.00,NNW,332,1.0,2.0,80,0.00,,,-99.99,,2013-02-19 23:11:00,
2013-02-19 16:21:00,30.0,25.0,-100.00,NNW,332,1.0,2.0,80,0.00,,,-99.99,,2013-02-19 23:21:00,
2013-02-19 16:31:00,29.0,28.0,-100.00,WNW,287,1.0,1.0,93,0.16,,,-99.99,,2013-02-19 23:31:00,
2013-02-19 16:41:00,29.0,28.0,-100.00,WNW,287,1.0,1.0,93,0.16,,,-99.99,,2013-02-19 23:41:00,
2013-02-19 16:52:00,28.0,27.0,-100.00,North,357,2.0,3.0,97,0.12,,,-99.99,,2013-02-19 23:52:00,
2013-02-19 17:01:00,28.0,27.0,-100.00,North,357,2.0,3.0,97,0.12,,,-99.99,,2013-02-20 00:01:00,
2013-02-19 17:11:00,28.0,28.0,-100.00,NNE,14,2.0,3.0,99,0.51,,,-99.99,,2013-02-20 00:11:00,
2013-02-19 17:21:00,27.0,27.0,-100.00,NE,45,3.0,3.0,99,0.04,,,-99.99,,2013-02-20 00:21:00,
2013-02-19 17:31:00,27.0,27.0,-100.00,NE,45,3.0,3.0,99,0.04,,,-99.99,,2013-02-20 00:31:00,
2013-02-19 17:41:00,28.0,27.0,-100.00,ENE,59,3.0,3.0,99,0.00,,,-99.99,,2013-02-20 00:41:00,
2013-02-19 17:52:00,28.0,27.0,-100.00,ENE,69,3.0,4.0,98,0.00,,,-99.99,,2013-02-20 00:52:00,
2013-02-19 18:02:00,28.0,27.0,-100.00,ENE,69,3.0,4.0,98,0.00,,,-99.99,,2013-02-20 01:02:00,
2013-02-19 18:11:00,27.0,26.0,-100.00,East,82,4.0,4.0,96,0.00,,,-99.99,,2013-02-20 01:11:00,
2013-02-19 18:21:00,28.0,26.0,-100.00,East,80,6.0,8.0,91,0.00,,,-99.99,,2013-02-20 01:21:00,
2013-02-19 18:31:00,28.0,26.0,-100.00,East,80,6.0,8.0,91,0.00,,,-99.99,,2013-02-20 01:31:00,
2013-02-19 18:41:00,28.0,26.0,-100.00,East,92,7.0,9.0,91,0.00,,,-99.99,,2013-02-20 01:41:00,
2013-02-19 18:52:00,28.0,26.0,-100.00,East,90,8.0,9.0,90,0.00,,,-99.99,,2013-02-20 01:52:00,
2013-02-19 19:01:00,28.0,26.0,-100.00,East,90,8.0,9.0,90,0.00,,,-99.99,,2013-02-20 02:01:00,
2013-02-19 19:11:00,28.0,26.0,-100.00,East,85,6.0,7.0,91,0.00,,,-99.99,,2013-02-20 02:11:00,
2013-02-19 19:21:00,28.0,26.0,-100.00,East,88,7.0,8.0,92,0.00,,,-99.99,,2013-02-20 02:21:00,
2013-02-19 19:31:00,28.0,26.0,-100.00,East,88,7.0,8.0,92,0.00,,,-99.99,,2013-02-20 02:31:00,
2013-02-19 19:41:00,29.0,26.0,-100.00,East,93,7.0,8.0,91,0.00,,,-99.99,,2013-02-20 02:41:00,
2013-02-19 19:52:00,30.0,27.0,-100.00,East,88,8.0,10.0,86,0.00,,,-99.99,,2013-02-20 02:52:00,
2013-02-19 20:01:00,30.0,27.0,-100.00,East,88,8.0,10.0,86,0.00,,,-99.99,,2013-02-20 03:01:00,
2013-02-19 20:12:00,28.0,25.0,-100.00,ENE,76,6.0,6.0,90,0.00,,,-99.99,,2013-02-20 03:12:00,
2013-02-19 20:21:00,27.0,25.0,-100.00,East,83,5.0,6.0,91,0.00,,,-99.99,,2013-02-20 03:21:00,
2013-02-19 20:32:00,27.0,25.0,-100.00,East,83,5.0,6.0,91,0.00,,,-99.99,,2013-02-20 03:32:00,
2013-02-19 20:41:00,27.0,26.0,-100.00,East,83,6.0,6.0,94,0.00,,,-99.99,,2013-02-20 03:41:00,
2013-02-19 20:52:00,27.0,26.0,-100.00,East,85,4.0,5.0,94,0.00,,,-99.99,,2013-02-20 03:52:00,
2013-02-19 21:01:00,27.0,26.0,-100.00,East,85,4.0,5.0,94,0.00,,,-99.99,,2013-02-20 04:01:00,
2013-02-19 21:11:00,28.0,26.0,-100.00,NE,45,3.0,3.0,92,0.00,,,-99.99,,2013-02-20 04:11:00,
2013-02-19 21:21:00,26.0,25.0,-100.00,ENE,58,5.0,6.0,94,0.00,,,-99.99,,2013-02-20 04:21:00,
2013-02-19 21:31:00,26.0,25.0,-100.00,ENE,58,5.0,6.0,94,0.00,,,-99.99,,2013-02-20 04:31:00,
2013-02-19 21:41:00,28.0,26.0,-100.00,ENE,71,6.0,6.0,93,0.00,,,-99.99,,2013-02-20 04:41:00,
2013-02-19 21:52:00,27.0,24.0,-100.00,ENE,58,5.0,6.0,91,0.00,,,-99.99,,2013-02-20 04:52:00,
2013-02-19 22:01:00,27.0,24.0,-100.00,ENE,58,5.0,6.0,91,0.00,,,-99.99,,2013-02-20 05:01:00,
2013-02-19 22:12:00,26.0,24.0,-100.00,ENE,73,4.0,5.0,94,0.00,,,-99.99,,2013-02-20 05:12:00,
2013-02-19 22:22:00,27.0,25.0,-100.00,ENE,76,4.0,4.0,92,0.00,,,-99.99,,2013-02-20 05:22:00,
2013-02-19 22:31:00,27.0,25.0,-100.00,ENE,76,4.0,4.0,92,0.00,,,-99.99,,2013-02-20 05:31:00,
2013-02-19 22:42:00,28.0,26.0,-100.00,ENE,73,4.0,5.0,91,0.00,,,-99.99,,2013-02-20 05:42:00,
2013-02-19 22:52:00,28.0,26.0,-100.00,East,86,5.0,5.0,92,0.00,,,-99.99,,2013-02-20 05:52:00,
2013-02-19 23:01:00,28.0,26.0,-100.00,East,86,5.0,5.0,92,0.00,,,-99.99,,2013-02-20 06:01:00,
2013-02-19 23:11:00,27.0,25.0,-100.00,ENE,76,4.0,5.0,91,0.00,,,-99.99,,2013-02-20 06:11:00,
2013-02-19 23:21:00,30.0,26.0,-100.00,East,83,2.0,4.0,86,0.00,,,-99.99,,2013-02-20 06:21:00,
2013-02-19 23:31:00,30.0,26.0,-100.00,East,83,2.0,4.0,86,0.00,,,-99.99,,2013-02-20 06:31:00,
2013-02-19 23:42:00,29.0,26.0,-100.00,ENE,78,7.0,8.0,88,0.00,,,-99.99,,2013-02-20 06:42:00,
2013-02-19 23:52:00,30.0,26.0,-100.00,ENE,72,7.0,8.0,86,0.00,,,-99.99,,2013-02-20 06:52:00,